Tidd Dale, Ohio
Current Conditions -  °F | °C
As of 2:53 PM on Thursday 23 Oct 2014 (Local Time) from KHLG Reporting Station
Overcast Overcast  
Wind Chill: 57°   Ceiling: 3500
Heat Index: 57°   Visibility: 10mi
Dew Point: 42°   Wind: 15mph
Humidity: 57%   Direction: 300°WNW
Pressure: 30.09"   Gusts: 22mph
Location:  40.2717°N, 80.6513°W
Report Text: KHLG 231853Z 30013G19KT 10SM OVC035 14/06 A3009 RMK AO2 SLP194 T01390056
Loading
Personal Weather Stations






























Interactive Weather Map
Tropical Storm Tracking
New forecast layout! Learn more

10-Day Weather Forecast

Advertisements
Track Severe Weather on mobile